createdAt,value
2022-12-11T00:00:27.706Z,228.40
2022-12-11T00:02:54.596Z,190.55
2022-12-11T00:05:21.419Z,152.38
2022-12-11T00:07:48.230Z,331.83
2022-12-11T00:10:15.059Z,112.60
2022-12-11T00:12:41.750Z,202.13
2022-12-11T00:15:09.213Z,75.40
2022-12-11T00:17:36.440Z,153.48
2022-12-11T00:20:03.496Z,106.15
2022-12-11T00:22:30.804Z,46.80
2022-12-11T00:24:57.704Z,283.35
2022-12-11T00:27:24.595Z,264.80
2022-12-11T00:29:51.307Z,131.02
2022-12-11T00:32:18.177Z,166.13
2022-12-11T00:34:45.066Z,294.42
2022-12-11T00:37:11.878Z,314.92
2022-12-11T00:39:39.872Z,399.15
2022-12-11T00:42:07.886Z,290.13
2022-12-11T00:44:35.107Z,338.20
2022-12-11T00:47:02.894Z,419.98
2022-12-11T00:49:29.919Z,542.17
2022-12-11T00:51:56.660Z,742.42
2022-12-11T00:54:23.458Z,557.47
2022-12-11T00:56:50.830Z,474.73
2022-12-11T00:59:17.608Z,594.15
2022-12-11T01:01:44.517Z,350.77
2022-12-11T01:04:11.305Z,392.27
2022-12-11T01:06:39.071Z,374.88
2022-12-11T01:09:24.397Z,324.83
2022-12-11T01:11:51.178Z,282.48
2022-12-11T01:14:18.002Z,210.80
2022-12-11T01:16:44.815Z,456.05
2022-12-11T01:19:12.026Z,228.50
2022-12-11T01:21:38.762Z,188.45
2022-12-11T01:24:05.896Z,174.82
2022-12-11T01:26:32.677Z,255.23
2022-12-11T01:28:59.434Z,249.50
2022-12-11T01:31:26.326Z,270.05
2022-12-11T01:33:56.202Z,313.25
2022-12-11T01:36:23.751Z,378.55
2022-12-11T01:38:50.705Z,272.52
2022-12-11T01:41:18.642Z,158.80
2022-12-11T01:44:04.935Z,289.08
2022-12-11T01:46:33.896Z,377.73
2022-12-11T01:49:03.368Z,319.35
2022-12-11T01:51:33.293Z,539.33
2022-12-11T01:54:08.843Z,479.13
2022-12-11T01:56:37.979Z,531.13
2022-12-11T01:59:07.163Z,459.67
2022-12-11T02:01:40.937Z,642.85
2022-12-11T02:04:08.953Z,540.15
2022-12-11T02:06:40.592Z,396.60
2022-12-11T02:09:10.991Z,477.25
2022-12-11T02:11:59.931Z,527.83
2022-12-11T02:14:42.490Z,489.10
2022-12-11T02:17:14.564Z,492.60
2022-12-11T02:19:44.034Z,607.65
2022-12-11T02:22:20.697Z,490.00
2022-12-11T02:25:03.585Z,606.05
2022-12-11T02:27:44.220Z,546.22
2022-12-11T02:30:14.198Z,599.05
2022-12-11T02:32:58.645Z,708.17
2022-12-11T02:35:31.183Z,668.28
2022-12-11T02:38:21.270Z,868.72
2022-12-11T02:40:51.968Z,860.38
2022-12-11T02:43:21.305Z,878.40
2022-12-11T02:45:49.886Z,816.38
2022-12-11T02:48:17.771Z,637.70
2022-12-11T02:50:47.477Z,777.40
2022-12-11T02:53:18.674Z,741.30
2022-12-11T02:55:47.567Z,560.25
2022-12-11T02:58:24.259Z,535.80
2022-12-11T03:00:51.298Z,695.50
2022-12-11T03:03:18.193Z,817.40
2022-12-11T03:05:46.244Z,587.08
2022-12-11T03:08:18.631Z,795.80
2022-12-11T03:10:46.456Z,663.03
2022-12-11T03:13:16.351Z,1017.53
2022-12-11T03:15:52.107Z,544.35
2022-12-11T03:18:23.863Z,645.88
2022-12-11T03:21:22.329Z,617.90
2022-12-11T03:23:51.343Z,741.53
2022-12-11T03:26:20.078Z,674.42
2022-12-11T03:29:02.644Z,557.38
2022-12-11T03:31:42.562Z,653.70
2022-12-11T03:34:23.229Z,673.88
2022-12-11T03:36:51.927Z,684.67
2022-12-11T03:39:33.041Z,779.90
2022-12-11T03:42:03.528Z,576.40
2022-12-11T03:44:32.317Z,691.05
2022-12-11T03:47:01.453Z,587.88
2022-12-11T03:49:31.858Z,572.88
2022-12-11T03:52:01.892Z,598.15
2022-12-11T03:54:29.942Z,500.95
2022-12-11T03:57:00.388Z,539.50
2022-12-11T03:59:27.392Z,493.67
2022-12-11T04:01:54.504Z,541.67
2022-12-11T04:04:21.481Z,698.67
2022-12-11T04:06:48.466Z,426.75
2022-12-11T04:09:15.287Z,635.70
2022-12-11T04:11:42.976Z,602.58
2022-12-11T04:14:30.214Z,506.33
2022-12-11T04:16:58.881Z,426.33
2022-12-11T04:19:44.946Z,646.35
2022-12-11T04:22:31.198Z,498.45
2022-12-11T04:24:58.053Z,606.65
2022-12-11T04:27:43.783Z,484.00
2022-12-11T04:30:17.022Z,389.85
2022-12-11T04:32:43.829Z,621.60
2022-12-11T04:35:12.810Z,660.83
2022-12-11T04:37:40.499Z,463.85
2022-12-11T04:40:10.673Z,426.25
2022-12-11T04:42:37.949Z,429.58
2022-12-11T04:45:05.656Z,512.45
2022-12-11T04:47:32.444Z,488.67
2022-12-11T04:49:59.149Z,505.63
2022-12-11T04:52:25.931Z,574.67
2022-12-11T04:54:52.703Z,474.30
2022-12-11T04:57:21.516Z,555.38
2022-12-11T04:59:49.111Z,494.40
2022-12-11T05:02:16.762Z,353.73
2022-12-11T05:04:43.621Z,553.72
2022-12-11T05:07:10.445Z,550.97
2022-12-11T05:09:37.322Z,622.20
2022-12-11T05:12:04.363Z,574.92
2022-12-11T05:14:32.467Z,590.83
2022-12-11T05:17:00.188Z,534.75
2022-12-11T05:19:27.622Z,491.85
2022-12-11T05:21:54.420Z,544.92
2022-12-11T05:24:21.161Z,437.88
2022-12-11T05:26:47.895Z,412.48
2022-12-11T05:29:14.684Z,713.22
2022-12-11T05:31:41.579Z,579.30
2022-12-11T05:34:08.462Z,792.78
2022-12-11T05:36:35.450Z,663.40
2022-12-11T05:39:03.762Z,792.80
2022-12-11T05:41:32.518Z,661.42
2022-12-11T05:43:59.982Z,768.25
2022-12-11T05:46:29.267Z,844.10
2022-12-11T05:48:58.986Z,874.05
2022-12-11T05:51:27.104Z,443.60
2022-12-11T05:53:55.541Z,777.67
2022-12-11T05:56:26.409Z,724.60
2022-12-11T05:58:53.948Z,694.10
2022-12-11T06:01:22.880Z,477.58
2022-12-11T06:03:49.769Z,737.85
2022-12-11T06:06:17.009Z,506.25
2022-12-11T06:08:44.031Z,894.63
2022-12-11T06:11:14.042Z,681.70
2022-12-11T06:13:40.917Z,1089.43
2022-12-11T06:16:08.920Z,682.88
2022-12-11T06:18:37.933Z,820.05
2022-12-11T06:21:27.885Z,810.95
2022-12-11T06:23:56.707Z,897.67
2022-12-11T06:26:23.938Z,573.35
2022-12-11T06:28:50.783Z,497.10
2022-12-11T06:31:18.047Z,828.40
2022-12-11T06:33:44.891Z,891.90
2022-12-11T06:36:14.486Z,695.95
2022-12-11T06:38:41.459Z,772.65
2022-12-11T06:41:08.994Z,542.92
2022-12-11T06:43:37.512Z,593.42
2022-12-11T06:46:09.773Z,732.75
2022-12-11T06:48:36.700Z,629.17
2022-12-11T06:51:08.224Z,717.97
2022-12-11T06:53:35.524Z,748.08
2022-12-11T06:56:05.724Z,1000.10
2022-12-11T06:58:33.949Z,1035.68
2022-12-11T07:01:00.792Z,871.05
2022-12-11T07:03:27.790Z,674.70
2022-12-11T07:05:54.597Z,500.40
2022-12-11T07:08:21.370Z,758.55
2022-12-11T07:10:48.338Z,915.05
2022-12-11T07:13:15.278Z,635.63
2022-12-11T07:15:42.287Z,715.42
2022-12-11T07:18:09.109Z,679.70
2022-12-11T07:20:36.105Z,1022.90
2022-12-11T07:23:02.956Z,1026.43
2022-12-11T07:25:29.916Z,985.13
2022-12-11T07:27:56.748Z,906.22
2022-12-11T07:30:23.498Z,774.63
2022-12-11T07:32:50.249Z,1290.20
2022-12-11T07:35:17.201Z,1238.43
2022-12-11T07:37:45.881Z,957.42
2022-12-11T07:40:13.470Z,1027.43
2022-12-11T07:42:46.017Z,802.47
2022-12-11T07:45:13.697Z,831.78
2022-12-11T07:47:40.702Z,777.63
2022-12-11T07:50:07.674Z,877.00
2022-12-11T07:52:34.518Z,739.55
2022-12-11T07:55:01.438Z,969.42
2022-12-11T07:57:28.717Z,722.47
2022-12-11T07:59:55.514Z,747.80
2022-12-11T08:02:22.391Z,738.25
2022-12-11T08:04:50.314Z,946.03
2022-12-11T08:07:17.047Z,927.55
2022-12-11T08:09:43.849Z,661.42
2022-12-11T08:12:10.569Z,785.30
2022-12-11T08:14:37.318Z,961.45
2022-12-11T08:17:04.137Z,915.88
2022-12-11T08:19:31.150Z,913.28
2022-12-11T08:21:57.904Z,677.40
2022-12-11T08:24:24.790Z,972.00
2022-12-11T08:26:51.541Z,844.55
2022-12-11T08:29:18.466Z,987.38
2022-12-11T08:31:45.510Z,984.85
2022-12-11T08:34:13.854Z,796.85
2022-12-11T08:36:40.898Z,751.35
2022-12-11T08:39:07.936Z,1038.57
2022-12-11T08:41:34.934Z,940.95
2022-12-11T08:44:02.016Z,667.22
2022-12-11T08:46:32.588Z,1037.90
2022-12-11T08:49:00.186Z,952.70
2022-12-11T08:51:28.731Z,1219.82
2022-12-11T08:54:00.551Z,777.22
2022-12-11T08:56:29.137Z,1190.15
2022-12-11T08:58:56.250Z,753.53
2022-12-11T09:01:26.063Z,539.90
2022-12-11T09:03:54.638Z,1068.15
2022-12-11T09:06:24.209Z,840.72
2022-12-11T09:08:53.414Z,1123.53
2022-12-11T09:11:26.936Z,777.60
2022-12-11T09:13:54.183Z,1085.82
2022-12-11T09:16:23.102Z,1077.13
2022-12-11T09:18:52.125Z,1417.03
2022-12-11T09:21:21.709Z,792.72
2022-12-11T09:23:49.490Z,1165.20
2022-12-11T09:26:18.096Z,1030.43
2022-12-11T09:28:46.899Z,716.85
2022-12-11T09:31:16.281Z,1183.30
2022-12-11T09:33:43.167Z,1263.75
2022-12-11T09:36:11.794Z,905.65
2022-12-11T09:38:39.076Z,1207.72
2022-12-11T09:41:21.663Z,1279.30
2022-12-11T09:44:00.572Z,778.50
2022-12-11T09:46:33.789Z,1136.50
2022-12-11T09:49:03.195Z,1622.72
2022-12-11T09:51:32.824Z,947.25
2022-12-11T09:54:03.870Z,1376.13
2022-12-11T09:56:36.726Z,959.38
2022-12-11T09:59:25.094Z,1019.38
2022-12-11T10:02:39.804Z,1296.72
2022-12-11T10:05:22.688Z,794.72
2022-12-11T10:08:03.209Z,1006.50
2022-12-11T10:10:43.016Z,1447.03
2022-12-11T10:13:34.557Z,1433.00
2022-12-11T10:16:29.170Z,985.42
2022-12-11T10:18:56.223Z,1136.78
2022-12-11T10:21:23.379Z,1168.57
2022-12-11T10:24:34.876Z,924.75
2022-12-11T10:27:19.883Z,1062.05
2022-12-11T10:29:48.962Z,714.75
2022-12-11T10:32:24.712Z,844.60
2022-12-11T10:34:59.259Z,427.58
2022-12-11T10:37:26.283Z,401.45
2022-12-11T10:39:53.204Z,725.38
2022-12-11T10:42:22.584Z,194.07
2022-12-11T10:45:04.384Z,478.20
2022-12-11T10:47:33.407Z,692.17
2022-12-11T10:50:02.531Z,65.25
2022-12-11T10:52:35.878Z,90.43
2022-12-11T10:55:17.683Z,94.63
2022-12-11T10:57:45.801Z,55.65
2022-12-11T11:00:37.680Z,69.63
2022-12-11T11:03:07.919Z,91.80
2022-12-11T11:05:37.209Z,134.63
2022-12-11T11:08:13.416Z,107.90
2022-12-11T11:10:55.126Z,213.25
2022-12-11T11:13:24.832Z,84.25
2022-12-11T11:16:05.674Z,55.08
2022-12-11T11:18:33.790Z,40.42
2022-12-11T11:21:01.360Z,45.97
2022-12-11T11:23:29.303Z,33.47
2022-12-11T11:26:01.921Z,29.67
2022-12-11T11:28:50.940Z,31.75
2022-12-11T11:31:19.471Z,28.45
2022-12-11T11:33:58.735Z,28.73
2022-12-11T11:36:31.289Z,25.80
2022-12-11T11:39:14.867Z,25.63
2022-12-11T11:42:06.511Z,30.15
2022-12-11T11:44:44.668Z,24.98
2022-12-11T11:47:19.409Z,26.70
2022-12-11T11:50:08.675Z,27.50
2022-12-11T11:52:53.446Z,26.35
2022-12-11T11:56:01.675Z,19.48
2022-12-11T11:58:56.326Z,23.15
2022-12-11T12:01:23.593Z,25.83
2022-12-11T12:03:52.121Z,22.10
2022-12-11T12:06:40.443Z,28.27
2022-12-11T12:09:25.496Z,25.92
2022-12-11T12:12:22.783Z,28.75
2022-12-11T12:15:01.295Z,36.67
2022-12-11T12:17:55.757Z,132.98
2022-12-11T12:20:48.749Z,56.20
2022-12-11T12:23:49.398Z,104.25
2022-12-11T12:26:32.817Z,503.20
2022-12-11T12:29:32.270Z,67.38
2022-12-11T12:32:47.135Z,305.73
2022-12-11T12:35:28.395Z,34.85
2022-12-11T12:38:40.915Z,36.25
2022-12-11T12:41:29.112Z,33.72
2022-12-11T12:44:13.871Z,27.02
2022-12-11T12:47:02.366Z,27.85
2022-12-11T12:49:40.442Z,21.10
2022-12-11T12:52:21.394Z,25.30
2022-12-11T12:55:12.148Z,17.58
2022-12-11T12:57:42.433Z,16.40
2022-12-11T13:00:13.273Z,19.15
2022-12-11T13:02:50.966Z,21.67
2022-12-11T13:05:26.369Z,26.13
2022-12-11T13:07:56.847Z,22.90
2022-12-11T13:10:25.429Z,22.45
2022-12-11T13:12:52.759Z,18.70
2022-12-11T13:15:43.065Z,20.73
2022-12-11T13:18:32.312Z,18.38
2022-12-11T13:20:59.759Z,13.00
2022-12-11T13:23:31.620Z,19.23
2022-12-11T13:26:03.880Z,12.65
2022-12-11T13:28:48.371Z,16.08
2022-12-11T13:31:15.483Z,18.23
2022-12-11T13:33:51.532Z,19.10
2022-12-11T13:36:24.111Z,14.63
2022-12-11T13:38:55.968Z,13.93
2022-12-11T13:41:23.717Z,17.30
2022-12-11T13:43:52.366Z,14.63
2022-12-11T13:46:27.786Z,18.92
2022-12-11T13:49:00.791Z,20.00
2022-12-11T13:51:31.020Z,18.45
2022-12-11T13:54:17.208Z,18.58
2022-12-11T13:56:59.027Z,17.45
2022-12-11T13:59:32.763Z,15.52
2022-12-11T14:02:04.740Z,23.52
2022-12-11T14:04:33.762Z,18.40
2022-12-11T14:07:01.956Z,19.27
2022-12-11T14:09:29.408Z,15.80
2022-12-11T14:11:57.373Z,16.13
2022-12-11T14:14:35.036Z,13.63
2022-12-11T14:17:02.061Z,16.98
2022-12-11T14:19:29.440Z,14.75
2022-12-11T14:22:04.349Z,19.30
2022-12-11T14:24:31.963Z,18.67
2022-12-11T14:26:58.929Z,18.45
2022-12-11T14:29:33.601Z,19.60
2022-12-11T14:32:06.616Z,16.95
2022-12-11T14:34:36.422Z,20.73
2022-12-11T14:37:06.996Z,19.45
2022-12-11T14:39:40.298Z,18.20
2022-12-11T14:42:18.578Z,17.30
2022-12-11T14:44:55.630Z,15.02
2022-12-11T14:47:27.821Z,16.88
2022-12-11T14:49:59.240Z,18.60
2022-12-11T14:52:33.774Z,15.63
2022-12-11T14:55:09.166Z,15.05
2022-12-11T14:57:37.037Z,14.25
2022-12-11T15:00:06.380Z,16.65
2022-12-11T15:02:35.686Z,13.85
2022-12-11T15:05:13.679Z,13.38
2022-12-11T15:07:43.786Z,16.63
2022-12-11T15:10:35.420Z,12.88
2022-12-11T15:13:03.867Z,13.32
2022-12-11T15:15:33.902Z,13.40
2022-12-11T15:18:06.334Z,12.07
2022-12-11T15:20:33.236Z,12.25
2022-12-11T15:23:02.236Z,14.48
2022-12-11T15:25:30.560Z,14.85
2022-12-11T15:27:59.719Z,9.80
2022-12-11T15:30:30.535Z,10.60
2022-12-11T15:33:03.539Z,13.40
2022-12-11T15:35:30.589Z,13.05
2022-12-11T15:37:58.863Z,11.13
2022-12-11T15:40:26.835Z,12.13
2022-12-11T15:42:55.063Z,13.52
2022-12-11T15:45:24.621Z,11.40
2022-12-11T15:47:52.387Z,12.45
2022-12-11T15:50:25.096Z,15.65
2022-12-11T15:52:53.482Z,10.93
2022-12-11T15:55:22.372Z,11.07
2022-12-11T15:57:56.594Z,11.68
2022-12-11T16:00:28.225Z,11.63
2022-12-11T16:02:57.062Z,9.73
2022-12-11T16:05:24.959Z,8.15
2022-12-11T16:07:59.334Z,9.63
2022-12-11T16:10:27.146Z,8.88
2022-12-11T16:12:59.272Z,12.05
2022-12-11T16:15:27.076Z,9.80
2022-12-11T16:18:05.008Z,8.90
2022-12-11T16:20:32.736Z,6.82
2022-12-11T16:22:59.656Z,9.52
2022-12-11T16:25:27.297Z,7.45
2022-12-11T16:27:58.233Z,11.15
2022-12-11T16:30:26.209Z,9.40
2022-12-11T16:32:53.175Z,12.32
2022-12-11T16:35:20.928Z,12.88
2022-12-11T16:37:52.714Z,13.65
2022-12-11T16:40:19.838Z,15.95
2022-12-11T16:42:46.861Z,20.30
2022-12-11T16:45:20.096Z,24.55
2022-12-11T16:47:46.916Z,19.75
2022-12-11T16:50:15.643Z,23.00
2022-12-11T16:52:43.281Z,23.50
2022-12-11T16:55:12.307Z,28.58
2022-12-11T16:57:39.902Z,27.70
2022-12-11T17:00:09.840Z,29.05
2022-12-11T17:02:37.079Z,34.97
2022-12-11T17:05:04.467Z,31.42
2022-12-11T17:07:34.715Z,34.38
2022-12-11T17:10:03.194Z,34.95
2022-12-11T17:12:30.628Z,33.65
2022-12-11T17:14:57.816Z,37.10
2022-12-11T17:17:25.028Z,31.58
2022-12-11T17:19:51.811Z,30.70
2022-12-11T17:22:18.748Z,39.88
2022-12-11T17:24:45.558Z,32.22
2022-12-11T17:27:12.635Z,31.05
2022-12-11T17:29:39.845Z,37.25
2022-12-11T17:32:06.712Z,34.05
2022-12-11T17:34:38.191Z,32.90
2022-12-11T17:37:06.215Z,39.90
2022-12-11T17:39:33.440Z,34.28
2022-12-11T17:42:00.776Z,31.33
2022-12-11T17:44:30.553Z,31.90
2022-12-11T17:47:02.657Z,35.30
2022-12-11T17:49:33.129Z,31.80
2022-12-11T17:51:59.925Z,34.33
2022-12-11T17:54:26.880Z,38.30
2022-12-11T17:56:53.683Z,42.08
2022-12-11T17:59:20.503Z,38.42
2022-12-11T18:01:47.299Z,38.50
2022-12-11T18:04:14.208Z,41.97
2022-12-11T18:06:41.106Z,38.75
2022-12-11T18:09:08.310Z,41.85
2022-12-11T18:11:35.546Z,40.35
2022-12-11T18:14:02.455Z,38.58
2022-12-11T18:16:32.284Z,41.88
2022-12-11T18:18:59.444Z,38.05
2022-12-11T18:21:31.708Z,38.28
2022-12-11T18:23:59.294Z,45.03
2022-12-11T18:26:26.406Z,33.70
2022-12-11T18:28:53.600Z,33.88
2022-12-11T18:31:21.762Z,39.00
2022-12-11T18:33:49.519Z,33.92
2022-12-11T18:36:17.966Z,28.83
2022-12-11T18:38:45.002Z,25.77
2022-12-11T18:41:13.379Z,35.53
2022-12-11T18:43:40.579Z,28.73
2022-12-11T18:46:09.621Z,30.58
2022-12-11T18:48:37.371Z,25.23
2022-12-11T18:51:13.364Z,22.38
2022-12-11T18:53:41.068Z,25.33
2022-12-11T18:56:11.233Z,10.52
2022-12-11T18:58:38.727Z,5.75
2022-12-11T19:01:10.779Z,5.50
2022-12-11T19:03:37.752Z,3.70
2022-12-11T19:06:09.837Z,4.85
2022-12-11T19:08:37.421Z,6.32
2022-12-11T19:11:05.781Z,5.80
2022-12-11T19:13:33.790Z,6.43
2022-12-11T19:16:01.631Z,7.68
2022-12-11T19:18:28.498Z,5.82
2022-12-11T19:21:06.498Z,5.07
2022-12-11T19:23:35.746Z,6.50
2022-12-11T19:26:02.660Z,4.93
2022-12-11T19:28:29.831Z,6.32
2022-12-11T19:30:56.822Z,6.07
2022-12-11T19:33:23.699Z,7.63
2022-12-11T19:35:59.763Z,6.70
2022-12-11T19:38:26.785Z,8.57
2022-12-11T19:40:54.121Z,8.23
2022-12-11T19:43:21.012Z,9.35
2022-12-11T19:45:48.353Z,9.15
2022-12-11T19:48:15.178Z,7.47
2022-12-11T19:50:42.335Z,12.13
2022-12-11T19:53:09.161Z,10.50
2022-12-11T19:55:35.913Z,10.27
2022-12-11T19:58:02.842Z,7.57
2022-12-11T20:00:29.950Z,10.85
2022-12-11T20:02:57.175Z,9.93
2022-12-11T20:05:24.009Z,10.38
2022-12-11T20:07:52.193Z,9.05
2022-12-11T20:10:19.179Z,10.18
2022-12-11T20:12:46.471Z,9.50
2022-12-11T20:15:13.760Z,8.77
2022-12-11T20:17:44.584Z,9.30
2022-12-11T20:20:11.803Z,14.55
2022-12-11T20:22:39.005Z,8.88
2022-12-11T20:25:06.444Z,10.30
2022-12-11T20:27:33.303Z,9.18
2022-12-11T20:30:00.099Z,8.85
2022-12-11T20:32:26.997Z,7.53
2022-12-11T20:34:58.059Z,8.13
2022-12-11T20:37:26.136Z,7.50
2022-12-11T20:39:52.953Z,7.47
2022-12-11T20:42:19.836Z,8.07
2022-12-11T20:44:49.238Z,8.85
2022-12-11T20:47:21.039Z,9.57
2022-12-11T20:49:49.010Z,11.07
2022-12-11T20:52:17.467Z,8.15
2022-12-11T20:54:44.825Z,8.98
2022-12-11T20:57:13.686Z,8.32
2022-12-11T20:59:40.492Z,9.48
2022-12-11T21:02:09.227Z,8.05
2022-12-11T21:04:41.097Z,7.85
2022-12-11T21:07:08.949Z,8.90
2022-12-11T21:09:36.482Z,9.75
2022-12-11T21:12:03.697Z,9.45
2022-12-11T21:14:31.069Z,12.65
2022-12-11T21:16:58.739Z,9.93
2022-12-11T21:19:26.073Z,9.35
2022-12-11T21:21:53.116Z,10.88
2022-12-11T21:24:23.057Z,9.98
2022-12-11T21:26:50.413Z,9.18
2022-12-11T21:29:17.415Z,8.93
2022-12-11T21:31:44.595Z,8.70
2022-12-11T21:34:11.565Z,8.95
2022-12-11T21:36:38.370Z,11.45
2022-12-11T21:39:05.237Z,9.63
2022-12-11T21:41:32.369Z,9.20
2022-12-11T21:46:46.288Z,11.25
2022-12-11T21:49:13.131Z,9.50
2022-12-11T21:51:46.764Z,9.77
2022-12-11T21:54:18.031Z,10.05
2022-12-11T21:56:45.983Z,7.00
2022-12-11T21:59:13.397Z,7.18
2022-12-11T22:01:43.851Z,6.13
2022-12-11T22:04:12.123Z,6.75
2022-12-11T22:06:41.960Z,7.55
2022-12-11T22:09:10.023Z,6.30
2022-12-11T22:11:36.794Z,7.03
2022-12-11T22:14:04.359Z,7.85
2022-12-11T22:16:31.237Z,6.35
2022-12-11T22:18:58.150Z,6.05
2022-12-11T22:21:25.359Z,6.20
2022-12-11T22:23:52.316Z,6.30
2022-12-11T22:26:22.243Z,5.38
2022-12-11T22:28:49.484Z,7.13
2022-12-11T22:31:20.588Z,5.75
2022-12-11T22:33:50.013Z,5.82
2022-12-11T22:36:19.840Z,6.38
2022-12-11T22:38:47.191Z,6.15
2022-12-11T22:41:22.476Z,7.28
2022-12-11T22:43:49.599Z,6.70
2022-12-11T22:46:18.074Z,6.00
2022-12-11T22:48:44.872Z,6.68
2022-12-11T22:51:11.993Z,7.47
2022-12-11T22:53:38.738Z,5.93
2022-12-11T22:56:10.045Z,6.65
2022-12-11T22:58:37.214Z,7.53
2022-12-11T23:01:09.932Z,6.45
2022-12-11T23:03:36.917Z,6.28
2022-12-11T23:06:08.628Z,6.85
2022-12-11T23:08:36.186Z,6.68
2022-12-11T23:11:09.666Z,6.25
2022-12-11T23:13:36.406Z,5.85
2022-12-11T23:16:03.290Z,9.77
2022-12-11T23:18:30.236Z,6.93
2022-12-11T23:20:57.154Z,6.28
2022-12-11T23:23:24.137Z,6.13
2022-12-11T23:25:51.083Z,7.03
2022-12-11T23:28:17.841Z,6.07
2022-12-11T23:30:44.597Z,7.68
2022-12-11T23:33:11.441Z,6.68
2022-12-11T23:35:38.167Z,7.50
2022-12-11T23:38:05.476Z,6.45
2022-12-11T23:40:32.974Z,6.82
2022-12-11T23:42:59.739Z,6.90
2022-12-11T23:45:26.659Z,6.50
2022-12-11T23:47:53.531Z,7.13
2022-12-11T23:50:20.284Z,7.10
2022-12-11T23:52:47.032Z,7.10
2022-12-11T23:55:14.363Z,7.38
2022-12-11T23:57:41.426Z,8.20
